createdAt,value
2023-03-27T00:00:48.594Z,73.57
2023-03-27T00:01:48.652Z,74.29
2023-03-27T00:02:48.682Z,75.12
2023-03-27T00:03:48.664Z,75.02
2023-03-27T00:04:48.545Z,76.15
2023-03-27T00:05:48.523Z,74.81
2023-03-27T00:06:48.501Z,74.29
2023-03-27T00:07:48.503Z,73.98
2023-03-27T00:08:48.472Z,73.88
2023-03-27T00:09:48.486Z,73.25
2023-03-27T00:10:48.458Z,72.77
2023-03-27T00:11:48.442Z,73.18
2023-03-27T00:12:48.422Z,73.22
2023-03-27T00:13:50.259Z,74.05
2023-03-27T00:14:48.411Z,73.91
2023-03-27T00:15:48.383Z,74.53
2023-03-27T00:16:48.393Z,74.63
2023-03-27T00:17:48.395Z,74.32
2023-03-27T00:18:48.342Z,72.98
2023-03-27T00:19:48.354Z,72.88
2023-03-27T00:20:48.322Z,73.28
2023-03-27T00:21:48.303Z,72.36
2023-03-27T00:22:48.292Z,71.84
2023-03-27T00:23:48.272Z,72.28
2023-03-27T00:24:48.277Z,71.97
2023-03-27T00:25:48.261Z,72.60
2023-03-27T00:26:48.229Z,72.91
2023-03-27T00:27:48.223Z,72.80
2023-03-27T00:28:48.198Z,72.70
2023-03-27T00:29:48.209Z,72.42
2023-03-27T00:30:48.281Z,72.84
2023-03-27T00:31:48.171Z,72.53
2023-03-27T00:32:48.188Z,73.36
2023-03-27T00:33:48.146Z,72.42
2023-03-27T00:34:48.146Z,72.63
2023-03-27T00:35:48.141Z,72.42
2023-03-27T00:36:48.097Z,72.66
2023-03-27T00:37:48.093Z,73.08
2023-03-27T00:38:48.069Z,73.18
2023-03-27T00:39:48.116Z,72.77
2023-03-27T00:40:48.077Z,72.77
2023-03-27T00:41:48.046Z,73.08
2023-03-27T00:42:48.021Z,73.08
2023-03-27T00:43:48.011Z,73.39
2023-03-27T00:44:48.018Z,73.70
2023-03-27T00:45:47.982Z,72.77
2023-03-27T00:46:48.001Z,72.87
2023-03-27T00:47:47.988Z,73.63
2023-03-27T00:48:47.956Z,73.39
2023-03-27T00:49:47.954Z,74.11
2023-03-27T00:50:47.923Z,73.84
2023-03-27T00:51:47.898Z,73.53
2023-03-27T00:52:47.925Z,73.94
2023-03-27T00:53:47.877Z,73.74
2023-03-27T00:54:47.882Z,73.53
2023-03-27T00:55:47.855Z,73.84
2023-03-27T00:56:47.835Z,74.26
2023-03-27T00:57:47.826Z,74.77
2023-03-27T00:58:47.815Z,74.26
2023-03-27T00:59:47.821Z,73.43
2023-03-27T01:00:47.791Z,73.53
2023-03-27T01:01:47.853Z,73.39
2023-03-27T01:02:47.876Z,73.22
2023-03-27T01:03:47.867Z,74.36
2023-03-27T01:04:47.746Z,73.63
2023-03-27T01:05:47.718Z,73.63
2023-03-27T01:06:47.698Z,73.32
2023-03-27T01:08:00.628Z,73.74
2023-03-27T01:08:48.664Z,75.29
2023-03-27T01:09:47.686Z,75.50
2023-03-27T01:10:47.677Z,73.94
2023-03-27T01:11:47.647Z,74.01
2023-03-27T01:12:47.624Z,72.77
2023-03-27T01:13:47.620Z,72.17
2023-03-27T01:14:47.604Z,73.53
2023-03-27T01:15:47.602Z,73.11
2023-03-27T01:16:47.571Z,73.32
2023-03-27T01:17:47.581Z,73.84
2023-03-27T01:18:47.548Z,72.87
2023-03-27T01:19:47.548Z,73.28
2023-03-27T01:20:47.518Z,74.01
2023-03-27T01:21:47.505Z,72.77
2023-03-27T01:22:47.486Z,73.08
2023-03-27T01:24:00.217Z,72.17
2023-03-27T01:24:48.492Z,72.59
2023-03-27T01:25:47.445Z,72.80
2023-03-27T01:26:47.475Z,72.69
2023-03-27T01:27:47.479Z,73.22
2023-03-27T01:28:47.429Z,73.32
2023-03-27T01:29:47.408Z,73.63
2023-03-27T01:30:47.384Z,73.84
2023-03-27T01:31:47.424Z,74.46
2023-03-27T01:32:47.384Z,73.22
2023-03-27T01:33:47.336Z,73.63
2023-03-27T01:34:47.334Z,73.63
2023-03-27T01:35:48.370Z,73.11
2023-03-27T01:36:47.295Z,72.35
2023-03-27T01:37:47.318Z,72.14
2023-03-27T01:38:47.267Z,71.94
2023-03-27T01:39:47.279Z,71.86
2023-03-27T01:40:47.257Z,72.49
2023-03-27T01:41:47.241Z,73.00
2023-03-27T01:42:47.245Z,72.90
2023-03-27T01:43:47.266Z,73.43
2023-03-27T01:44:47.198Z,74.15
2023-03-27T01:45:47.220Z,73.94
2023-03-27T01:46:47.244Z,72.90
2023-03-27T01:47:47.178Z,72.80
2023-03-27T01:48:47.137Z,73.74
2023-03-27T01:49:47.164Z,73.00
2023-03-27T01:50:47.146Z,72.59
2023-03-27T01:51:47.106Z,73.11
2023-03-27T01:52:47.113Z,72.49
2023-03-27T01:53:47.106Z,72.80
2023-03-27T01:54:47.089Z,73.11
2023-03-27T01:55:47.131Z,73.11
2023-03-27T01:56:47.062Z,73.22
2023-03-27T01:57:49.346Z,73.94
2023-03-27T01:58:47.006Z,73.22
2023-03-27T01:59:47.005Z,74.15
2023-03-27T02:00:52.901Z,73.74
2023-03-27T02:01:48.029Z,73.43
2023-03-27T02:02:46.984Z,73.53
2023-03-27T02:03:46.936Z,73.74
2023-03-27T02:04:47.085Z,73.00
2023-03-27T02:05:46.941Z,73.11
2023-03-27T02:06:46.898Z,73.53
2023-03-27T02:07:46.893Z,72.90
2023-03-27T02:08:46.866Z,73.22
2023-03-27T02:09:46.865Z,73.94
2023-03-27T02:10:46.874Z,74.26
2023-03-27T02:11:46.842Z,74.05
2023-03-27T02:12:46.823Z,74.88
2023-03-27T02:13:46.820Z,73.53
2023-03-27T02:14:46.791Z,73.43
2023-03-27T02:15:46.800Z,73.74
2023-03-27T02:16:46.801Z,74.15
2023-03-27T02:17:46.780Z,74.15
2023-03-27T02:18:46.742Z,74.01
2023-03-27T02:19:46.733Z,72.45
2023-03-27T02:20:46.743Z,72.77
2023-03-27T02:21:46.704Z,73.39
2023-03-27T02:22:46.687Z,73.18
2023-03-27T02:23:46.685Z,73.18
2023-03-27T02:24:46.664Z,73.08
2023-03-27T02:25:46.684Z,72.07
2023-03-27T02:26:46.641Z,73.22
2023-03-27T02:27:46.636Z,74.26
2023-03-27T02:28:46.606Z,74.67
2023-03-27T02:29:46.607Z,73.43
2023-03-27T02:30:46.609Z,73.32
2023-03-27T02:31:47.626Z,72.80
2023-03-27T02:32:46.630Z,73.22
2023-03-27T02:33:46.554Z,73.43
2023-03-27T02:34:46.528Z,73.94
2023-03-27T02:35:46.587Z,73.22
2023-03-27T02:36:46.515Z,73.32
2023-03-27T02:37:46.493Z,73.22
2023-03-27T02:38:46.482Z,73.56
2023-03-27T02:39:46.476Z,73.87
2023-03-27T02:40:46.461Z,73.56
2023-03-27T02:41:46.453Z,74.08
2023-03-27T02:42:46.422Z,74.18
2023-03-27T02:43:46.423Z,74.80
2023-03-27T02:44:47.399Z,74.70
2023-03-27T02:45:46.475Z,74.49
2023-03-27T02:46:46.375Z,74.49
2023-03-27T02:47:46.421Z,74.70
2023-03-27T02:48:46.361Z,75.01
2023-03-27T02:49:46.338Z,75.32
2023-03-27T02:50:46.327Z,75.32
2023-03-27T02:51:46.362Z,75.22
2023-03-27T02:52:46.294Z,75.12
2023-03-27T02:53:46.292Z,74.70
2023-03-27T02:54:46.265Z,75.12
2023-03-27T02:55:46.261Z,75.01
2023-03-27T02:56:46.302Z,75.01
2023-03-27T02:57:51.625Z,75.54
2023-03-27T02:58:47.210Z,75.95
2023-03-27T02:59:46.224Z,75.95
2023-03-27T03:00:46.192Z,75.95
2023-03-27T03:01:46.250Z,75.88
2023-03-27T03:02:46.242Z,75.67
2023-03-27T03:03:46.163Z,76.09
2023-03-27T03:04:46.159Z,76.72
2023-03-27T03:05:46.128Z,75.98
2023-03-27T03:06:46.126Z,75.36
2023-03-27T03:07:46.100Z,75.67
2023-03-27T03:08:46.088Z,75.67
2023-03-27T03:09:46.076Z,75.78
2023-03-27T03:10:46.162Z,76.09
2023-03-27T03:11:46.073Z,75.98
2023-03-27T03:12:46.039Z,76.09
2023-03-27T03:13:46.024Z,76.16
2023-03-27T03:14:46.015Z,75.98
2023-03-27T03:15:46.014Z,76.19
2023-03-27T03:16:46.021Z,75.88
2023-03-27T03:17:46.054Z,75.98
2023-03-27T03:18:45.966Z,75.57
2023-03-27T03:19:45.941Z,76.19
2023-03-27T03:20:45.947Z,76.61
2023-03-27T03:21:45.940Z,76.61
2023-03-27T03:22:45.900Z,76.51
2023-03-27T03:23:57.862Z,76.72
2023-03-27T03:24:46.875Z,77.34
2023-03-27T03:25:45.885Z,76.61
2023-03-27T03:26:45.886Z,76.09
2023-03-27T03:27:45.842Z,76.29
2023-03-27T03:29:01.035Z,76.61
2023-03-27T03:29:46.807Z,76.19
2023-03-27T03:30:45.845Z,76.09
2023-03-27T03:31:45.818Z,75.98
2023-03-27T03:32:45.808Z,76.09
2023-03-27T03:33:45.755Z,76.09
2023-03-27T03:34:45.744Z,76.51
2023-03-27T03:35:45.754Z,75.98
2023-03-27T03:36:45.735Z,75.98
2023-03-27T03:37:45.708Z,75.98
2023-03-27T03:38:45.690Z,75.98
2023-03-27T03:39:45.685Z,76.09
2023-03-27T03:40:45.677Z,76.54
2023-03-27T03:41:45.675Z,76.72
2023-03-27T03:42:45.638Z,76.75
2023-03-27T03:43:45.627Z,77.34
2023-03-27T03:44:45.604Z,76.19
2023-03-27T03:45:45.599Z,76.29
2023-03-27T03:46:45.592Z,75.67
2023-03-27T03:47:45.611Z,75.67
2023-03-27T03:48:45.553Z,75.88
2023-03-27T03:49:45.552Z,76.51
2023-03-27T03:50:45.538Z,76.19
2023-03-27T03:51:45.529Z,76.29
2023-03-27T03:52:45.509Z,76.19
2023-03-27T03:53:45.487Z,75.92
2023-03-27T03:54:46.739Z,76.33
2023-03-27T03:55:45.477Z,76.54
2023-03-27T03:56:45.523Z,76.23
2023-03-27T03:57:45.431Z,76.95
2023-03-27T03:58:45.423Z,76.85
2023-03-27T03:59:45.412Z,76.64
2023-03-27T04:00:45.405Z,76.95
2023-03-27T04:01:45.414Z,76.85
2023-03-27T04:02:45.495Z,76.54
2023-03-27T04:03:45.456Z,76.12
2023-03-27T04:04:46.645Z,76.64
2023-03-27T04:05:45.328Z,77.06
2023-03-27T04:06:45.316Z,77.37
2023-03-27T04:07:45.452Z,77.58
2023-03-27T04:08:45.291Z,76.75
2023-03-27T04:09:45.269Z,76.89
2023-03-27T04:10:45.266Z,77.30
2023-03-27T04:11:45.252Z,77.40
2023-03-27T04:12:45.307Z,77.40
2023-03-27T04:13:45.216Z,77.69
2023-03-27T04:14:45.214Z,77.58
2023-03-27T04:15:45.281Z,77.58
2023-03-27T04:16:45.179Z,77.48
2023-03-27T04:17:45.373Z,77.79
2023-03-27T04:18:45.321Z,77.89
2023-03-27T04:19:45.144Z,77.79
2023-03-27T04:20:45.143Z,77.69
2023-03-27T04:21:45.119Z,77.58
2023-03-27T04:22:45.299Z,77.58
2023-03-27T04:23:45.101Z,78.00
2023-03-27T04:24:45.079Z,78.41
2023-03-27T04:25:45.066Z,78.00
2023-03-27T04:26:45.058Z,78.52
2023-03-27T04:27:45.045Z,78.20
2023-03-27T04:28:45.041Z,78.00
2023-03-27T04:29:45.011Z,77.89
2023-03-27T04:30:45.007Z,77.58
2023-03-27T04:31:45.006Z,77.48
2023-03-27T04:32:45.062Z,77.79
2023-03-27T04:33:44.960Z,77.69
2023-03-27T04:34:44.949Z,77.69
2023-03-27T04:35:44.946Z,78.10
2023-03-27T04:36:45.109Z,78.20
2023-03-27T04:37:44.934Z,78.66
2023-03-27T04:38:44.900Z,78.66
2023-03-27T04:39:44.913Z,78.55
2023-03-27T04:40:44.876Z,78.76
2023-03-27T04:41:44.855Z,79.80
2023-03-27T04:42:44.897Z,80.11
2023-03-27T04:43:44.826Z,80.18
2023-03-27T04:44:44.816Z,88.84
2023-03-27T04:45:44.809Z,96.50
2023-03-27T04:46:44.843Z,95.41
2023-03-27T04:47:44.813Z,85.81
2023-03-27T04:48:44.769Z,82.39
2023-03-27T04:49:44.754Z,88.78
2023-03-27T04:50:44.740Z,83.07
2023-03-27T04:51:44.721Z,80.52
2023-03-27T04:52:44.737Z,76.47
2023-03-27T04:53:44.704Z,75.60
2023-03-27T04:54:44.690Z,76.26
2023-03-27T04:55:44.704Z,76.89
2023-03-27T04:56:44.690Z,77.23
2023-03-27T04:57:44.670Z,77.69
2023-03-27T04:58:44.645Z,78.52
2023-03-27T04:59:44.625Z,79.14
2023-03-27T05:00:44.645Z,79.55
2023-03-27T05:01:44.653Z,79.66
2023-03-27T05:02:44.766Z,79.24
2023-03-27T05:03:44.594Z,79.24
2023-03-27T05:04:44.549Z,79.24
2023-03-27T05:05:44.534Z,78.97
2023-03-27T05:06:44.527Z,79.17
2023-03-27T05:07:44.554Z,79.38
2023-03-27T05:08:44.569Z,79.69
2023-03-27T05:09:44.502Z,79.91
2023-03-27T05:10:44.482Z,79.94
2023-03-27T05:11:44.460Z,80.05
2023-03-27T05:12:44.445Z,80.46
2023-03-27T05:13:44.479Z,80.46
2023-03-27T05:14:44.421Z,80.77
2023-03-27T05:15:44.394Z,80.57
2023-03-27T05:16:44.511Z,80.36
2023-03-27T05:17:44.396Z,80.36
2023-03-27T05:18:44.397Z,80.57
2023-03-27T05:19:44.364Z,80.57
2023-03-27T05:20:44.349Z,80.81
2023-03-27T05:21:44.337Z,81.02
2023-03-27T05:22:44.357Z,81.09
2023-03-27T05:23:44.319Z,81.19
2023-03-27T05:24:44.290Z,80.98
2023-03-27T05:25:44.367Z,80.88
2023-03-27T05:26:44.250Z,80.77
2023-03-27T05:27:44.524Z,80.98
2023-03-27T05:28:44.250Z,81.09
2023-03-27T05:29:46.369Z,81.19
2023-03-27T05:30:44.300Z,80.98
2023-03-27T05:31:44.199Z,80.88
2023-03-27T05:32:44.243Z,81.29
2023-03-27T05:33:44.290Z,81.29
2023-03-27T05:34:44.163Z,81.02
2023-03-27T05:35:44.170Z,81.33
2023-03-27T05:36:44.129Z,81.50
2023-03-27T05:37:44.123Z,81.33
2023-03-27T05:38:44.117Z,81.19
2023-03-27T05:39:44.094Z,81.33
2023-03-27T05:40:44.110Z,81.50
2023-03-27T05:41:44.073Z,81.50
2023-03-27T05:42:44.072Z,81.60
2023-03-27T05:43:44.062Z,81.81
2023-03-27T05:44:44.037Z,81.81
2023-03-27T05:45:44.041Z,81.71
2023-03-27T05:46:44.083Z,81.50
2023-03-27T05:47:44.027Z,81.29
2023-03-27T05:48:43.975Z,80.88
2023-03-27T05:49:43.950Z,80.98
2023-03-27T05:50:43.955Z,80.98
2023-03-27T05:51:47.310Z,81.09
2023-03-27T05:52:43.911Z,81.40
2023-03-27T05:53:43.908Z,81.50
2023-03-27T05:54:43.868Z,81.40
2023-03-27T05:55:43.874Z,81.40
2023-03-27T05:56:43.874Z,81.81
2023-03-27T05:57:43.858Z,81.81
2023-03-27T05:58:43.842Z,81.92
2023-03-27T05:59:43.834Z,81.81
2023-03-27T06:00:43.834Z,81.71
2023-03-27T06:01:43.800Z,81.81
2023-03-27T06:02:43.984Z,81.81
2023-03-27T06:03:43.892Z,81.71
2023-03-27T06:04:43.804Z,81.40
2023-03-27T06:05:43.746Z,81.71
2023-03-27T06:06:43.750Z,82.03
2023-03-27T06:07:43.920Z,82.34
2023-03-27T06:08:43.736Z,82.30
2023-03-27T06:09:43.711Z,81.77
2023-03-27T06:10:43.705Z,81.57
2023-03-27T06:11:43.669Z,81.67
2023-03-27T06:12:43.653Z,81.67
2023-03-27T06:13:43.671Z,81.46
2023-03-27T06:14:43.648Z,81.36
2023-03-27T06:15:43.689Z,81.36
2023-03-27T06:16:43.618Z,81.26
2023-03-27T06:17:43.628Z,81.46
2023-03-27T06:18:43.586Z,81.26
2023-03-27T06:19:43.716Z,81.57
2023-03-27T06:20:43.561Z,81.46
2023-03-27T06:21:43.608Z,81.57
2023-03-27T06:22:43.530Z,81.88
2023-03-27T06:23:43.517Z,81.57
2023-03-27T06:24:43.512Z,81.77
2023-03-27T06:25:43.487Z,81.98
2023-03-27T06:26:43.481Z,81.98
2023-03-27T06:27:43.458Z,81.26
2023-03-27T06:28:43.525Z,81.46
2023-03-27T06:29:43.446Z,81.43
2023-03-27T06:30:43.434Z,81.32
2023-03-27T06:31:43.552Z,81.32
2023-03-27T06:32:43.601Z,81.32
2023-03-27T06:33:43.391Z,81.22
2023-03-27T06:34:43.417Z,81.32
2023-03-27T06:35:43.459Z,81.53
2023-03-27T06:36:44.350Z,81.63
2023-03-27T06:37:43.415Z,81.49
2023-03-27T06:38:43.327Z,81.39
2023-03-27T06:39:43.324Z,80.77
2023-03-27T06:40:43.298Z,80.42
2023-03-27T06:41:43.342Z,80.32
2023-03-27T06:42:43.474Z,80.52
2023-03-27T06:43:43.267Z,80.32
2023-03-27T06:44:43.334Z,79.58
2023-03-27T06:45:43.237Z,79.48
2023-03-27T06:46:45.803Z,79.58
2023-03-27T06:47:53.828Z,80.21
2023-03-27T06:48:44.298Z,79.69
2023-03-27T06:49:43.194Z,79.48
2023-03-27T06:50:43.369Z,79.27
2023-03-27T06:51:43.157Z,79.38
2023-03-27T06:52:43.168Z,79.69
2023-03-27T06:53:43.131Z,80.28
2023-03-27T06:54:43.152Z,79.44
2023-03-27T06:55:43.096Z,79.34
2023-03-27T06:56:43.128Z,79.34
2023-03-27T06:57:43.101Z,79.44
2023-03-27T06:58:43.109Z,79.13
2023-03-27T06:59:43.117Z,78.78
2023-03-27T07:00:43.060Z,77.95
2023-03-27T07:01:43.096Z,77.95
2023-03-27T07:02:43.030Z,78.16
2023-03-27T07:03:42.999Z,78.06
2023-03-27T07:04:51.099Z,78.37
2023-03-27T07:05:44.051Z,78.34
2023-03-27T07:06:42.952Z,78.34
2023-03-27T07:07:42.971Z,78.13
2023-03-27T07:08:42.969Z,77.82
2023-03-27T07:09:42.944Z,78.13
2023-03-27T07:10:42.945Z,77.51
2023-03-27T07:11:42.933Z,77.30
2023-03-27T07:12:42.878Z,77.09
2023-03-27T07:13:42.874Z,77.20
2023-03-27T07:14:42.864Z,77.82
2023-03-27T07:15:42.824Z,77.40
2023-03-27T07:16:42.877Z,77.82
2023-03-27T07:17:48.725Z,78.65
2023-03-27T07:18:43.785Z,78.55
2023-03-27T07:19:42.784Z,78.03
2023-03-27T07:20:42.790Z,78.03
2023-03-27T07:21:42.748Z,77.92
2023-03-27T07:22:42.807Z,77.51
2023-03-27T07:23:42.727Z,77.61
2023-03-27T07:24:42.736Z,77.92
2023-03-27T07:25:42.974Z,77.99
2023-03-27T07:26:42.691Z,77.30
2023-03-27T07:27:42.669Z,77.58
2023-03-27T07:28:42.669Z,77.99
2023-03-27T07:29:42.659Z,77.78
2023-03-27T07:30:42.645Z,77.89
2023-03-27T07:32:43.784Z,77.37
2023-03-27T07:33:42.736Z,77.78
2023-03-27T07:34:42.719Z,77.64
2023-03-27T07:35:42.643Z,77.33
2023-03-27T07:36:42.548Z,77.23
2023-03-27T07:37:42.534Z,77.54
2023-03-27T07:38:42.522Z,76.46
2023-03-27T07:39:42.524Z,76.88
2023-03-27T07:40:42.498Z,76.78
2023-03-27T07:41:42.504Z,76.53
2023-03-27T07:42:42.476Z,75.74
2023-03-27T07:43:42.481Z,75.43
2023-03-27T07:44:42.473Z,75.74
2023-03-27T07:45:42.464Z,75.43
2023-03-27T07:46:42.432Z,75.12
2023-03-27T07:47:42.419Z,75.36
2023-03-27T07:48:42.396Z,75.88
2023-03-27T07:49:42.401Z,75.67
2023-03-27T07:50:42.374Z,75.88
2023-03-27T07:51:42.359Z,76.29
2023-03-27T07:52:42.362Z,76.29
2023-03-27T07:53:42.475Z,76.09
2023-03-27T07:54:42.335Z,76.81
2023-03-27T07:55:42.328Z,76.71
2023-03-27T07:56:42.403Z,76.40
2023-03-27T07:57:57.248Z,76.29
2023-03-27T07:58:43.341Z,77.02
2023-03-27T07:59:42.265Z,76.92
2023-03-27T08:00:42.237Z,77.23
2023-03-27T08:01:42.223Z,77.19
2023-03-27T08:02:42.263Z,76.98
2023-03-27T08:03:42.526Z,76.98
2023-03-27T08:04:42.283Z,76.32
2023-03-27T08:05:42.192Z,75.50
2023-03-27T08:06:42.153Z,75.29
2023-03-27T08:07:42.139Z,75.71
2023-03-27T08:08:42.126Z,75.12
2023-03-27T08:09:42.114Z,75.02
2023-03-27T08:10:42.119Z,75.22
2023-03-27T08:11:42.089Z,75.12
2023-03-27T08:12:42.070Z,74.26
2023-03-27T08:13:42.068Z,73.43
2023-03-27T08:14:42.079Z,73.53
2023-03-27T08:15:42.052Z,73.50
2023-03-27T08:16:42.069Z,74.95
2023-03-27T08:17:42.094Z,75.22
2023-03-27T08:18:42.003Z,74.29
2023-03-27T08:19:41.980Z,74.29
2023-03-27T08:20:42.011Z,74.12
2023-03-27T08:21:41.954Z,73.19
2023-03-27T08:22:41.953Z,73.71
2023-03-27T08:23:41.944Z,74.22
2023-03-27T08:24:41.921Z,74.32
2023-03-27T08:25:42.040Z,74.22
2023-03-27T08:26:45.937Z,74.74
2023-03-27T08:27:42.975Z,74.95
2023-03-27T08:28:43.321Z,74.95
2023-03-27T08:29:42.146Z,74.32
2023-03-27T08:30:42.687Z,73.60
2023-03-27T08:31:42.124Z,74.26
2023-03-27T08:32:42.968Z,74.88
2023-03-27T08:33:42.119Z,74.77
2023-03-27T08:34:42.479Z,75.40
2023-03-27T08:35:42.303Z,75.81
2023-03-27T08:36:42.678Z,76.53
2023-03-27T08:37:42.065Z,75.71
2023-03-27T08:38:42.528Z,74.88
2023-03-27T08:39:42.159Z,73.74
2023-03-27T08:40:42.683Z,74.40
2023-03-27T08:41:42.897Z,74.08
2023-03-27T08:42:44.191Z,74.71
2023-03-27T08:43:42.974Z,74.50
2023-03-27T08:44:42.184Z,74.81
2023-03-27T08:45:42.402Z,74.71
2023-03-27T08:46:42.312Z,74.40
2023-03-27T08:47:43.318Z,74.60
2023-03-27T08:48:41.599Z,74.91
2023-03-27T08:49:41.590Z,75.29
2023-03-27T08:50:41.584Z,75.50
2023-03-27T08:51:41.551Z,75.67
2023-03-27T08:52:41.547Z,75.36
2023-03-27T08:53:41.555Z,74.43
2023-03-27T08:54:41.519Z,74.22
2023-03-27T08:55:41.632Z,74.19
2023-03-27T08:56:41.527Z,74.40
2023-03-27T08:57:41.479Z,73.05
2023-03-27T08:58:41.467Z,73.77
2023-03-27T08:59:41.451Z,74.77
2023-03-27T09:00:41.450Z,79.70
2023-03-27T09:01:41.534Z,77.33
2023-03-27T09:02:41.509Z,74.53
2023-03-27T09:03:41.479Z,79.94
2023-03-27T09:04:41.381Z,76.01
2023-03-27T09:05:41.377Z,72.91
2023-03-27T09:06:41.353Z,69.51
2023-03-27T09:07:41.341Z,70.54
2023-03-27T09:08:41.319Z,73.43
2023-03-27T09:09:41.321Z,73.22
2023-03-27T09:10:41.328Z,71.37
2023-03-27T09:11:41.289Z,71.09
2023-03-27T09:12:42.044Z,69.26
2023-03-27T09:13:41.263Z,69.26
2023-03-27T09:14:41.241Z,68.85
2023-03-27T09:15:41.265Z,68.95
2023-03-27T09:16:41.251Z,68.36
2023-03-27T09:17:41.244Z,67.61
2023-03-27T09:18:41.221Z,68.02
2023-03-27T09:19:41.182Z,68.54
2023-03-27T09:20:41.202Z,68.57
2023-03-27T09:21:41.155Z,69.67
2023-03-27T09:22:41.173Z,71.74
2023-03-27T09:23:41.123Z,73.16
2023-03-27T09:24:41.137Z,70.98
2023-03-27T09:25:41.132Z,70.37
2023-03-27T09:26:41.092Z,71.16
2023-03-27T09:27:41.078Z,69.20
2023-03-27T09:28:41.072Z,66.93
2023-03-27T09:29:41.075Z,65.92
2023-03-27T09:30:41.065Z,67.06
2023-03-27T09:31:41.077Z,68.82
2023-03-27T09:32:41.052Z,67.37
2023-03-27T09:33:41.021Z,67.88
2023-03-27T09:34:40.981Z,66.54
2023-03-27T09:35:41.193Z,66.85
2023-03-27T09:36:40.982Z,66.75
2023-03-27T09:37:40.940Z,65.82
2023-03-27T09:38:40.935Z,64.24
2023-03-27T09:39:40.949Z,62.69
2023-03-27T09:40:40.923Z,63.72
2023-03-27T09:41:40.902Z,64.42
2023-03-27T09:42:40.959Z,64.73
2023-03-27T09:43:40.879Z,63.72
2023-03-27T09:44:40.852Z,63.72
2023-03-27T09:45:40.884Z,64.06
2023-03-27T09:46:40.953Z,64.78
2023-03-27T09:47:40.911Z,64.89
2023-03-27T09:48:40.800Z,64.99
2023-03-27T09:49:40.805Z,64.99
2023-03-27T09:50:40.773Z,66.03
2023-03-27T09:51:40.785Z,65.33
2023-03-27T09:52:40.754Z,65.54
2023-03-27T09:53:40.747Z,66.13
2023-03-27T09:54:40.726Z,66.10
2023-03-27T09:55:40.714Z,66.93
2023-03-27T09:56:40.733Z,65.58
2023-03-27T09:57:40.684Z,64.45
2023-03-27T09:58:40.794Z,66.10
2023-03-27T09:59:40.651Z,65.58
2023-03-27T10:00:40.682Z,65.45
2023-03-27T10:01:40.651Z,63.39
2023-03-27T10:02:40.665Z,62.69
2023-03-27T10:03:40.688Z,62.27
2023-03-27T10:04:40.583Z,64.03
2023-03-27T10:05:40.583Z,65.48
2023-03-27T10:06:40.592Z,64.65
2023-03-27T10:07:40.572Z,65.17
2023-03-27T10:08:40.549Z,66.10
2023-03-27T10:09:40.605Z,64.89
2023-03-27T10:10:40.533Z,66.10
2023-03-27T10:11:40.526Z,66.41
2023-03-27T10:12:40.501Z,64.76
2023-03-27T10:13:40.477Z,64.03
2023-03-27T10:14:40.455Z,64.96
2023-03-27T10:15:40.470Z,64.96
2023-03-27T10:16:40.517Z,62.07
2023-03-27T10:17:40.549Z,62.59
2023-03-27T10:18:40.415Z,61.24
2023-03-27T10:19:40.402Z,61.04
2023-03-27T10:20:40.384Z,61.97
2023-03-27T10:21:40.386Z,62.59
2023-03-27T10:22:40.357Z,62.25
2023-03-27T10:23:40.407Z,63.90
2023-03-27T10:24:44.388Z,64.52
2023-03-27T10:25:41.331Z,65.00
2023-03-27T10:26:40.327Z,65.73
2023-03-27T10:27:40.293Z,67.66
2023-03-27T10:28:40.318Z,66.80
2023-03-27T10:29:41.254Z,66.28
2023-03-27T10:30:40.255Z,64.95
2023-03-27T10:31:40.307Z,63.64
2023-03-27T10:32:40.339Z,63.87
2023-03-27T10:33:40.214Z,62.53
2023-03-27T10:34:40.212Z,61.08
2023-03-27T10:35:40.239Z,62.22
2023-03-27T10:36:40.178Z,60.98
2023-03-27T10:37:40.174Z,60.36
2023-03-27T10:38:40.142Z,61.08
2023-03-27T10:39:40.144Z,61.91
2023-03-27T10:40:40.110Z,61.40
2023-03-27T10:41:40.190Z,62.04
2023-03-27T10:42:40.090Z,63.04
2023-03-27T10:43:40.108Z,65.00
2023-03-27T10:44:40.059Z,66.66
2023-03-27T10:45:40.117Z,68.00
2023-03-27T10:46:40.050Z,68.93
2023-03-27T10:47:40.083Z,69.96
2023-03-27T10:48:40.015Z,70.37
2023-03-27T10:49:40.009Z,70.47
2023-03-27T10:50:39.998Z,71.06
2023-03-27T10:51:46.608Z,70.86
2023-03-27T10:52:41.013Z,71.06
2023-03-27T10:53:40.064Z,68.82
2023-03-27T10:54:40.038Z,71.26
2023-03-27T10:55:39.889Z,69.10
2023-03-27T10:56:39.971Z,67.90
2023-03-27T10:57:39.926Z,67.27
2023-03-27T10:58:39.882Z,67.07
2023-03-27T10:59:42.123Z,66.45
2023-03-27T11:00:39.860Z,65.00
2023-03-27T11:01:39.931Z,64.80
2023-03-27T11:02:39.882Z,66.24
2023-03-27T11:03:39.855Z,66.31
2023-03-27T11:04:39.852Z,65.28
2023-03-27T11:05:39.788Z,65.67
2023-03-27T11:06:39.768Z,63.89
2023-03-27T11:07:39.825Z,65.64
2023-03-27T11:08:39.738Z,62.34
2023-03-27T11:09:39.742Z,62.75
2023-03-27T11:10:39.721Z,62.24
2023-03-27T11:11:39.718Z,61.54
2023-03-27T11:12:39.710Z,62.13
2023-03-27T11:13:39.688Z,62.44
2023-03-27T11:14:39.668Z,62.75
2023-03-27T11:15:39.654Z,64.89
2023-03-27T11:16:39.715Z,67.57
2023-03-27T11:17:39.684Z,67.77
2023-03-27T11:18:39.632Z,66.77
2023-03-27T11:19:39.610Z,67.52
2023-03-27T11:20:39.585Z,67.86
2023-03-27T11:21:39.571Z,68.54
2023-03-27T11:22:39.590Z,70.40
2023-03-27T11:23:39.557Z,71.67
2023-03-27T11:24:39.515Z,72.91
2023-03-27T11:25:39.539Z,73.02
2023-03-27T11:26:39.513Z,73.64
2023-03-27T11:27:39.537Z,73.74
2023-03-27T11:28:39.557Z,73.22
2023-03-27T11:29:39.485Z,73.47
2023-03-27T11:30:39.528Z,74.46
2023-03-27T11:31:39.593Z,75.57
2023-03-27T11:32:39.512Z,75.22
2023-03-27T11:33:39.423Z,73.68
2023-03-27T11:34:39.425Z,73.16
2023-03-27T11:35:39.405Z,73.74
2023-03-27T11:36:39.376Z,73.60
2023-03-27T11:37:39.394Z,72.47
2023-03-27T11:38:39.354Z,70.89
2023-03-27T11:39:39.359Z,69.65
2023-03-27T11:40:39.334Z,68.55
2023-03-27T11:41:39.314Z,70.00
2023-03-27T11:42:39.300Z,68.96
2023-03-27T11:43:39.304Z,69.69
2023-03-27T11:44:39.271Z,71.34
2023-03-27T11:45:39.264Z,69.27
2023-03-27T11:46:39.265Z,68.76
2023-03-27T11:47:39.319Z,68.69
2023-03-27T11:48:39.249Z,69.59
2023-03-27T11:49:39.217Z,68.86
2023-03-27T11:50:39.230Z,68.96
2023-03-27T11:51:39.200Z,67.93
2023-03-27T11:52:39.174Z,67.73
2023-03-27T11:53:39.205Z,65.18
2023-03-27T11:54:39.150Z,65.56
2023-03-27T11:55:39.117Z,66.60
2023-03-27T11:56:39.125Z,67.11
2023-03-27T11:57:39.105Z,66.49
2023-03-27T11:58:39.102Z,67.03
2023-03-27T11:59:39.085Z,68.54
2023-03-27T12:00:39.132Z,70.23
2023-03-27T12:01:39.088Z,72.67
2023-03-27T12:02:39.114Z,73.39
2023-03-27T12:03:39.159Z,73.29
2023-03-27T12:04:39.010Z,73.02
2023-03-27T12:05:39.004Z,72.81
2023-03-27T12:06:38.978Z,72.39
2023-03-27T12:07:40.583Z,72.50
2023-03-27T12:08:39.998Z,72.60
2023-03-27T12:09:38.943Z,72.50
2023-03-27T12:10:38.945Z,72.05
2023-03-27T12:11:38.927Z,71.61
2023-03-27T12:12:38.898Z,72.78
2023-03-27T12:13:41.818Z,69.03
2023-03-27T12:14:41.057Z,77.28
2023-03-27T12:15:38.864Z,68.87
2023-03-27T12:16:38.896Z,64.83
2023-03-27T12:17:38.900Z,62.38
2023-03-27T12:18:41.341Z,69.04
2023-03-27T12:19:39.806Z,67.13
2023-03-27T12:20:48.675Z,64.84
2023-03-27T12:21:39.785Z,63.98
2023-03-27T12:22:38.794Z,61.49
2023-03-27T12:23:38.808Z,60.77
2023-03-27T12:24:40.609Z,59.13
2023-03-27T12:25:39.734Z,58.16
2023-03-27T12:26:38.756Z,59.31
2023-03-27T12:27:38.704Z,58.83
2023-03-27T12:28:40.127Z,59.78
2023-03-27T12:29:38.685Z,59.42
2023-03-27T12:30:38.676Z,60.41
2023-03-27T12:31:38.705Z,62.71
2023-03-27T12:32:38.678Z,64.25
2023-03-27T12:33:38.655Z,65.80
2023-03-27T12:34:38.630Z,66.73
2023-03-27T12:35:38.625Z,66.52
2023-03-27T12:36:38.631Z,64.87
2023-03-27T12:37:38.621Z,66.01
2023-03-27T12:38:38.596Z,64.56
2023-03-27T12:39:38.558Z,65.59
2023-03-27T12:40:38.536Z,64.39
2023-03-27T12:41:38.529Z,66.04
2023-03-27T12:42:43.900Z,67.69
2023-03-27T12:43:39.560Z,69.89
2023-03-27T12:44:38.476Z,73.60
2023-03-27T12:45:44.253Z,76.22
2023-03-27T12:46:39.485Z,78.74
2023-03-27T12:47:38.481Z,79.91
2023-03-27T12:48:38.453Z,79.91
2023-03-27T12:49:46.840Z,80.22
2023-03-27T12:50:39.399Z,80.05
2023-03-27T12:51:38.385Z,80.16
2023-03-27T12:52:38.398Z,81.09
2023-03-27T12:53:38.393Z,81.23